岩国飛行場の過去48時間の天気

岩国飛行場 (Iwakuni)

現在時刻: 10/18 12:59 JST (10/18 03:59 UTC) 以下の時間は現地時間です。

過去48時間のMETAR気象情報
時間 風向 風速(m/s) 視程 気温(℃) 湿度(%) 気圧(hPa) 天気現象
18 11:55 東南東 3 10km以上 21.7 59 1015.1
18 10:55 3 10km以上 21.7 59 1015.5
18 09:55 北東 2 10km以上 20.6 61 1015.8
18 08:55 西北西 2 10km以上 17.2 67 1015.9
18 07:55 北西 4 10km以上 15.6 72 1015.5
18 06:55 西北西 4 10km以上 14.4 78 1015.1
18 05:55 北西 4 10km以上 14.4 78 1014.7
18 04:55 西北西 4 10km以上 14.4 81 1014.5
18 03:55 西北西 4 10km以上 15 78 1014.3
18 02:55 西北西 4 10km以上 15 78 1014
18 01:55 西北西 4 10km以上 15.6 78 1013.9
18 00:55 北西 4 10km以上 16.1 75 1013.9
17 23:55 西北西 4 10km以上 16.7 72 1013.6
17 22:55 西北西 4 10km以上 17.2 72 1013.6
17 21:55 北西 3 10km以上 17.8 70 1013.7
17 20:55 北西 3 10km以上 18.3 65 1013.5
17 19:55 西北西 4 10km以上 18.9 65 1013.2
17 18:55 北西 2 10km以上 20 61 1012.8
17 17:55 南南西 4 10km以上 20.6 57 1012.3
17 16:55 4 10km以上 21.1 49 1012.1
17 15:55 3 10km以上 21.1 51 1011.9
17 14:55 4 10km以上 22.8 46 1011.7
17 13:55 東南東 2 10km以上 22.2 43 1011.3
17 12:55 東北東 2 10km以上 22.8 41 1011.6
17 11:55 3 10km以上 22.2 48 1012.6
17 10:55 東北東 2 10km以上 21.7 51 1013.1
17 09:55 北東 3 10km以上 20.6 59 1013.3
17 08:55 静穏 0 10km以上 19.4 61 1013.4
17 07:55 西北西 2 10km以上 17.2 67 1013.4
17 06:55 西北西 3 10km以上 15.6 75 1013
17 05:55 西北西 3 10km以上 15.6 75 1012.5
17 04:55 北西 3 10km以上 16.1 75 1011.9
17 03:55 北西 3 10km以上 16.7 72 1011.7
17 00:55 北西 3 10km以上 17.8 73 1011.6
16 23:55 西北西 3 10km以上 18.3 68 1012.1
16 22:55 西北西 2 10km以上 17.8 75 1012.4
16 21:55 西北西 3 10km以上 18.3 70 1012.5
16 20:55 北北西 3 10km以上 19.4 63 1012
16 19:55 3 10km以上 20 63 1011.9
16 18:55 北北西 4 10km以上 20.6 63 1011.6
16 17:55 静穏 0 10km以上 21.1 61 1011
16 16:55 南西 2 10km以上 21.1 61 1011.5 周辺でしゅう雨
16 15:55 南西 2 10km以上 21.1 63 1011.5
16 14:55 南南西 2 10km以上 21.7 59 1011.3
16 13:55 2 10km以上 22.2 57 1011.7
RJOI 180255Z 11006KT 9999 SCT030 22/13 A2998 RMK SLP151 MDT CU W-N T02170133 56003
RJOI 180155Z 08005KT 9999 FEW025 FEW240 22/13 A2999 RMK SLP155 MDT CU W-N T02170133
RJOI 180055Z 05003KT 9999 FEW025 BKN240 21/13 A3000 RMK SLP158 T02060128
RJOI 172355Z 30004KT 9999 FEW025 FEW035 BKN240 17/11 A3000 RMK SLP159 T01720111 10172 20144 51010
RJOI 172255Z 31007KT 9999 FEW030 SCT035 BKN240 16/11 A2999 RMK SLP155 T01560106
RJOI 172155Z 30007KT 9999 FEW020 BKN050 BKN200 14/11 A2998 RMK SLP151 T01440106
RJOI 172055Z 31007KT 9999 FEW030 SCT040 SCT050 14/11 A2997 RMK SLP147 T01440106 51007
RJOI 171955Z 30007KT 9999 FEW045 SCT055 14/11 A2996 RMK SLP145 T01440111
RJOI 171855Z 30007KT 9999 FEW030 BKN040 15/11 A2995 RMK SLP143 T01500111
RJOI 171755Z 30007KT 9999 FEW050 FEW200 15/11 A2995 RMK SLP140 T01500111 10183 20150 51003
RJOI 171655Z 30008KT 9999 SCT200 16/12 A2994 RMK SLP139 T01560117
RJOI 171555Z 31007KT 9999 FEW030 16/12 A2994 RMK SLP139 T01610117
RJOI 171455Z 30007KT 9999 SKC 17/12 A2993 RMK SLP136 T01670117 402330150 54000
RJOI 171355Z 30007KT 9999 FEW210 17/12 A2993 RMK SLP136 T01720122
RJOI 171255Z 31006KT 9999 SCT210 18/12 A2994 RMK SLP137 T01780122
RJOI 171155Z 31005KT 9999 FEW030 BKN200 18/12 A2993 RMK SLP135 T01830117 10228 20183 51010
RJOI 171055Z 30007KT 9999 FEW030 FEW050 BKN230 19/12 A2992 RMK SLP132 T01890122
RJOI 170955Z 31003KT 9999 FEW030 FEW050 BKN230 20/12 A2991 RMK SLP128 T02000122
RJOI 170855Z 20007KT 9999 FEW030 FEW050 BKN230 21/12 A2990 RMK SLP123 T02060117 53010
RJOI 170755Z 19007KT 9999 FEW030 FEW050 SCT230 21/10 A2989 RMK SLP121 T02110100
RJOI 170655Z 19006KT 9999 FEW030 BKN230 21/11 A2988 RMK SLP119 T02110106
RJOI 170555Z 19008KT 9999 FEW030 BKN050 BKN230 23/11 A2988 RMK SLP117 T02280106 10233 20194 55010
RJOI 170455Z 11004KT 9999 FEW030 SCT045 BKN230 22/09 A2987 RMK SLP113 T02220089
RJOI 170355Z 07004KT 9999 FEW030 FEW045 SCT230 23/09 A2988 RMK SLP116 T02280089
RJOI 170255Z VRB05KT 9999 FEW025 BKN230 22/11 A2990 RMK SLP126 T02220106 58007
RJOI 170155Z 06004KT 9999 FEW025 BKN230 22/11 A2992 RMK SLP131 T02170111
RJOI 170055Z 04005KT 9999 FEW025 BKN230 21/12 A2993 RMK SLP133 T02060122
RJOI 162355Z 00000KT 9999 FEW020 FEW230 19/12 A2993 RMK SLP134 T01940117 10194 20150 51007
RJOI 162255Z 29003KT 9999 FEW020 FEW230 17/11 A2993 RMK SLP134 T01720111
RJOI 162155Z 30006KT 9999 FEW030 FEW090 16/11 A2992 RMK SLP130 T01560111
RJOI 162055Z 30006KT 9999 FEW030 FEW090 16/12 A2990 RMK SLP125 6//// T01560111 52010
RJOI 161955Z 31005KT 9999 BKN120 16/12 A2988 RMK SLP119 T01610117
RJOI 161855Z 31005KT 9999 OVC100 17/12 A2988 RMK SLP117 T01670117
RJOI 161555Z 32005KT 9999 OVC100 18/13 A2987 RMK SLP116 T01780128
RJOI 161455Z COR 30005KT 9999 OVC090 18/12 A2989 RMK SLP121 6//// T01830122 402280150 50000
RJOI 161355Z 30004KT 9999 OVC100 18/13 A2990 RMK SLP124 T01780133
RJOI 161255Z 30006KT 9999 SCT050 OVC110 18/13 A2990 RMK SLP125 T01830128
RJOI 161155Z 34005KT 9999 SCT050 OVC100 19/12 A2989 RMK SLP120 6//// 7//// T01940122 10217 20194 52017
RJOI 161055Z COR 35006KT 9999 SCT050 OVC100 20/13 A2988 RMK SLP119 T02000128
RJOI 160955Z 33007KT 9999 FEW030 SCT070 BKN100 21/13 A2988 RMK SLP116 T02060133
RJOI 160855Z 00000KT 9999 SCT040 BKN070 BKN120 21/13 A2986 RMK SHRAB0756E22 SLP110 P0000 60000 T02110133 58003
RJOI 160755Z 22003KT 9999 VCSH FEW030 SCT110 BKN160 21/13 A2987 RMK SLP115 VCSH W T02110133
RJOI 160655Z 22003KT 9999 FEW025 SCT090 BKN140 21/14 A2987 RMK SLP115 T02110139
RJOI 160555Z 21004KT 9999 FEW025 FEW090 BKN180 22/13 A2987 RMK SLP113 T02170133 10228 20178 56020
RJOI 160455Z 19004KT 9999 FEW025 BKN090 BKN180 22/13 A2988 RMK SLP117 T02220133